Terminal Aerodrome Forecast
Issued by NWS Mt. Holly, NJ

Home | Current Version | Previous Version | Text Only | Print | Product List | Glossary On
Versions: 1 2 3 4 5 6 7 8 9 10 11 12 13 14 15 16 17 18 19 20 21 22 23
000
FTUS41 KPHI 272140 AAB
TAFRDG
TAF AMD
KRDG 272140Z 2722/2818 VRB02KT P6SM FEW015 SCT090
     FM280200 VRB02KT P6SM OVC015
     FM280400 VRB02KT 3SM BR OVC007
     FM280600 VRB03KT 1SM BR OVC003
     FM281000 VRB05KT 2SM -SHRA BR OVC003
     FM281400 VRB05KT 4SM BR OVC006=

USA.gov is the U.S. government's official web portal to all federal, state and local government web resources and services.